createdAt,value
2022-08-03T00:01:38.311Z,19.40
2022-08-03T00:04:07.078Z,19.30
2022-08-03T00:06:37.134Z,19.30
2022-08-03T00:09:05.817Z,19.40
2022-08-03T00:11:33.152Z,19.30
2022-08-03T00:14:00.595Z,19.30
2022-08-03T00:16:27.632Z,19.20
2022-08-03T00:18:54.632Z,19.20
2022-08-03T00:21:21.654Z,19.10
2022-08-03T00:23:51.682Z,19.10
2022-08-03T00:26:20.635Z,19.10
2022-08-03T00:28:47.903Z,19.10
2022-08-03T00:31:14.822Z,19.10
2022-08-03T00:33:59.673Z,19.10
2022-08-03T00:36:29.097Z,19.10
2022-08-03T00:38:56.690Z,19.10
2022-08-03T00:41:23.609Z,19.10
2022-08-03T00:43:50.843Z,19.10
2022-08-03T00:46:21.618Z,19.10
2022-08-03T00:48:50.526Z,19.00
2022-08-03T00:51:18.271Z,19.00
2022-08-03T00:53:46.157Z,18.90
2022-08-03T00:56:17.677Z,18.90
2022-08-03T00:58:46.381Z,18.80
2022-08-03T01:01:14.436Z,18.80
2022-08-03T01:03:42.241Z,18.80
2022-08-03T01:06:22.779Z,18.80
2022-08-03T01:08:57.770Z,18.70
2022-08-03T01:12:00.843Z,18.80
2022-08-03T01:14:33.385Z,18.80
2022-08-03T01:17:13.151Z,18.70
2022-08-03T01:20:12.377Z,18.70
2022-08-03T01:23:08.930Z,18.70
2022-08-03T01:26:24.778Z,18.70
2022-08-03T01:29:09.034Z,18.80
2022-08-03T01:32:59.547Z,18.80
2022-08-03T01:34:34.688Z,18.80
2022-08-03T01:37:06.253Z,18.70
2022-08-03T01:39:35.309Z,18.70
2022-08-03T01:42:08.369Z,18.60
2022-08-03T01:44:40.619Z,18.60
2022-08-03T01:47:08.734Z,18.60
2022-08-03T01:49:45.695Z,18.60
2022-08-03T01:52:13.734Z,18.50
2022-08-03T01:54:45.707Z,18.50
2022-08-03T01:57:14.197Z,18.60
2022-08-03T01:59:43.267Z,18.50
2022-08-03T02:02:28.620Z,18.50
2022-08-03T02:05:01.887Z,18.50
2022-08-03T02:07:29.950Z,18.50
2022-08-03T02:09:58.572Z,18.60
2022-08-03T02:12:29.928Z,18.50
2022-08-03T02:14:57.736Z,18.60
2022-08-03T02:17:39.797Z,18.60
2022-08-03T02:20:09.416Z,18.60
2022-08-03T02:22:39.369Z,18.60
2022-08-03T02:25:11.180Z,18.60
2022-08-03T02:27:43.862Z,18.60
2022-08-03T02:30:13.339Z,18.60
2022-08-03T02:32:44.079Z,18.60
2022-08-03T02:35:15.441Z,18.60
2022-08-03T02:37:49.877Z,18.60
2022-08-03T02:40:19.153Z,18.50
2022-08-03T02:42:48.841Z,18.50
2022-08-03T02:45:18.568Z,18.40
2022-08-03T02:47:54.320Z,18.40
2022-08-03T02:50:24.104Z,18.40
2022-08-03T02:52:53.291Z,18.30
2022-08-03T02:55:22.089Z,18.30
2022-08-03T02:57:50.247Z,18.30
2022-08-03T03:00:27.494Z,18.20
2022-08-03T03:03:00.823Z,18.30
2022-08-03T03:05:55.016Z,18.20
2022-08-03T03:08:20.845Z,18.20
2022-08-03T03:10:56.206Z,18.10
2022-08-03T03:13:24.711Z,18.10
2022-08-03T03:15:52.768Z,18.10
2022-08-03T03:18:22.799Z,18.10
2022-08-03T03:20:52.688Z,18.10
2022-08-03T03:23:22.101Z,18.00
2022-08-03T03:25:49.955Z,18.00
2022-08-03T03:28:17.241Z,18.00
2022-08-03T03:30:44.571Z,18.00
2022-08-03T03:33:20.598Z,18.00
2022-08-03T03:35:48.242Z,18.00
2022-08-03T03:38:15.274Z,17.90
2022-08-03T03:40:42.712Z,17.90
2022-08-03T03:43:12.274Z,17.90
2022-08-03T03:45:42.304Z,17.90
2022-08-03T03:48:09.454Z,17.90
2022-08-03T03:50:37.668Z,17.90
2022-08-03T03:53:05.016Z,18.00
2022-08-03T03:55:36.714Z,18.00
2022-08-03T03:58:23.634Z,18.10
2022-08-03T04:00:54.005Z,18.10
2022-08-03T04:03:21.161Z,18.10
2022-08-03T04:06:06.603Z,18.20
2022-08-03T04:08:52.027Z,18.40
2022-08-03T04:11:44.059Z,18.60
2022-08-03T04:14:17.062Z,18.90
2022-08-03T04:16:48.747Z,19.10
2022-08-03T04:19:23.609Z,19.40
2022-08-03T04:21:57.015Z,19.60
2022-08-03T04:24:30.684Z,19.80
2022-08-03T04:27:00.952Z,20.00
2022-08-03T04:29:31.150Z,20.10
2022-08-03T04:32:00.737Z,20.30
2022-08-03T04:34:30.261Z,20.50
2022-08-03T04:37:00.555Z,20.70
2022-08-03T04:39:31.204Z,20.80
2022-08-03T04:42:08.556Z,20.90
2022-08-03T04:44:46.608Z,21.20
2022-08-03T04:47:13.880Z,21.30
2022-08-03T04:49:41.212Z,21.50
2022-08-03T04:52:10.095Z,21.70
2022-08-03T04:54:48.681Z,21.90
2022-08-03T04:57:23.157Z,22.10
2022-08-03T05:00:01.689Z,22.20
2022-08-03T05:02:31.345Z,22.40
2022-08-03T05:04:58.739Z,22.50
2022-08-03T05:07:25.912Z,22.60
2022-08-03T05:10:01.373Z,22.70
2022-08-03T05:12:32.705Z,22.80
2022-08-03T05:15:00.622Z,22.60
2022-08-03T05:17:28.653Z,22.80
2022-08-03T05:19:56.487Z,23.20
2022-08-03T05:22:23.911Z,23.30
2022-08-03T05:24:51.130Z,23.40
2022-08-03T05:27:21.282Z,23.60
2022-08-03T05:29:51.437Z,23.60
2022-08-03T05:32:19.280Z,23.60
2022-08-03T05:34:46.368Z,23.60
2022-08-03T05:37:13.377Z,23.50
2022-08-03T05:39:40.503Z,23.40
2022-08-03T05:42:07.546Z,23.60
2022-08-03T05:44:34.566Z,23.70
2022-08-03T05:47:01.552Z,24.10
2022-08-03T05:49:28.627Z,24.40
2022-08-03T05:52:00.324Z,24.50
2022-08-03T05:54:55.450Z,24.30
2022-08-03T05:57:24.162Z,24.60
2022-08-03T05:59:55.606Z,24.70
2022-08-03T06:02:26.983Z,24.80
2022-08-03T06:04:54.302Z,24.80
2022-08-03T06:07:21.218Z,25.00
2022-08-03T06:10:34.023Z,25.20
2022-08-03T06:12:36.375Z,25.20
2022-08-03T06:15:05.135Z,25.20
2022-08-03T06:17:37.704Z,25.30
2022-08-03T06:20:06.165Z,25.00
2022-08-03T06:22:33.200Z,25.20
2022-08-03T06:25:04.266Z,25.10
2022-08-03T06:27:37.324Z,25.40
2022-08-03T06:30:05.679Z,25.60
2022-08-03T06:32:33.803Z,25.70
2022-08-03T06:35:01.338Z,25.90
2022-08-03T06:37:28.933Z,26.10
2022-08-03T06:39:55.913Z,26.20
2022-08-03T06:42:22.878Z,25.90
2022-08-03T06:44:52.292Z,25.90
2022-08-03T06:47:19.239Z,26.10
2022-08-03T06:50:12.419Z,26.30
2022-08-03T06:52:37.610Z,26.50
2022-08-03T06:55:06.160Z,26.60
2022-08-03T06:57:33.183Z,26.60
2022-08-03T07:00:09.050Z,26.30
2022-08-03T07:02:40.069Z,26.40
2022-08-03T07:05:08.372Z,26.70
2022-08-03T07:07:35.666Z,26.80
2022-08-03T07:10:03.461Z,26.90
2022-08-03T07:12:31.039Z,27.10
2022-08-03T07:15:01.926Z,27.30
2022-08-03T07:17:31.737Z,27.40
2022-08-03T07:19:59.338Z,27.60
2022-08-03T07:22:26.556Z,27.70
2022-08-03T07:24:53.893Z,27.70
2022-08-03T07:27:20.920Z,27.70
2022-08-03T07:29:47.930Z,28.20
2022-08-03T07:32:15.191Z,28.20
2022-08-03T07:34:42.329Z,28.30
2022-08-03T07:37:09.490Z,28.30
2022-08-03T07:39:36.450Z,28.20
2022-08-03T07:42:03.493Z,28.30
2022-08-03T07:44:30.454Z,28.10
2022-08-03T07:46:57.890Z,27.80
2022-08-03T07:49:25.302Z,28.00
2022-08-03T07:52:12.288Z,28.00
2022-08-03T07:54:39.310Z,28.00
2022-08-03T07:57:06.412Z,28.50
2022-08-03T07:59:56.609Z,28.60
2022-08-03T08:02:22.224Z,28.40
2022-08-03T08:04:49.185Z,28.70
2022-08-03T08:07:16.140Z,28.90
2022-08-03T08:09:45.246Z,29.20
2022-08-03T08:12:15.715Z,29.10
2022-08-03T08:14:45.953Z,28.90
2022-08-03T08:17:13.767Z,28.70
2022-08-03T08:19:41.495Z,28.80
2022-08-03T08:22:18.392Z,28.90
2022-08-03T08:24:57.346Z,28.90
2022-08-03T08:27:24.288Z,28.90
2022-08-03T08:29:55.177Z,29.00
2022-08-03T08:32:24.638Z,29.10
2022-08-03T08:34:51.680Z,29.10
2022-08-03T08:37:18.880Z,29.50
2022-08-03T08:39:45.805Z,29.80
2022-08-03T08:42:12.848Z,29.90
2022-08-03T08:44:39.937Z,29.60
2022-08-03T08:47:09.483Z,29.40
2022-08-03T08:49:40.256Z,29.30
2022-08-03T08:52:29.577Z,29.20
2022-08-03T08:55:01.990Z,29.20
2022-08-03T08:57:42.259Z,29.00
2022-08-03T09:00:14.090Z,29.10
2022-08-03T09:02:42.662Z,29.40
2022-08-03T09:05:18.368Z,29.70
2022-08-03T09:07:47.102Z,30.00
2022-08-03T09:10:17.524Z,29.90
2022-08-03T09:12:46.328Z,29.70
2022-08-03T09:15:33.686Z,29.60
2022-08-03T09:18:03.260Z,29.70
2022-08-03T09:20:33.939Z,29.60
2022-08-03T09:23:14.053Z,29.50
2022-08-03T09:26:00.103Z,29.50
2022-08-03T09:29:01.649Z,29.70
2022-08-03T09:31:37.139Z,29.80
2022-08-03T09:34:17.702Z,29.70
2022-08-03T09:36:47.296Z,29.90
2022-08-03T09:39:41.015Z,29.70
2022-08-03T09:42:09.407Z,29.70
2022-08-03T09:44:38.584Z,29.70
2022-08-03T09:47:10.285Z,29.60
2022-08-03T09:49:44.097Z,29.60
2022-08-03T09:52:38.329Z,29.40
2022-08-03T09:56:30.681Z,29.60
2022-08-03T09:58:10.665Z,29.80
2022-08-03T10:00:55.134Z,29.90
2022-08-03T10:03:23.329Z,29.70
2022-08-03T10:05:50.570Z,29.60
2022-08-03T10:08:19.118Z,29.70
2022-08-03T10:10:47.808Z,29.70
2022-08-03T10:13:16.680Z,29.80
2022-08-03T10:16:22.944Z,29.60
2022-08-03T10:18:31.840Z,29.70
2022-08-03T10:21:09.195Z,29.60
2022-08-03T10:23:37.949Z,29.60
2022-08-03T10:26:08.346Z,29.80
2022-08-03T10:28:42.793Z,29.80
2022-08-03T10:31:13.177Z,30.00
2022-08-03T10:33:49.906Z,30.10
2022-08-03T10:36:24.542Z,30.20
2022-08-03T10:38:55.314Z,30.40
2022-08-03T10:41:26.285Z,30.40
2022-08-03T10:44:03.711Z,30.40
2022-08-03T10:46:30.984Z,30.20
2022-08-03T10:48:58.558Z,30.20
2022-08-03T10:51:30.619Z,30.50
2022-08-03T10:53:58.161Z,30.60
2022-08-03T10:56:54.320Z,30.70
2022-08-03T11:00:00.699Z,30.70
2022-08-03T11:03:06.718Z,30.60
2022-08-03T11:05:39.022Z,30.60
2022-08-03T11:08:32.312Z,30.60
2022-08-03T11:11:28.725Z,30.60
2022-08-03T11:14:02.934Z,30.70
2022-08-03T11:16:35.121Z,30.90
2022-08-03T11:19:13.181Z,30.70
2022-08-03T11:21:49.641Z,30.90
2022-08-03T11:24:39.355Z,30.90
2022-08-03T11:27:18.480Z,31.20
2022-08-03T11:29:55.242Z,31.30
2022-08-03T11:32:46.578Z,31.20
2022-08-03T11:35:17.908Z,31.30
2022-08-03T11:38:07.209Z,31.20
2022-08-03T11:40:54.004Z,31.00
2022-08-03T11:43:35.193Z,31.10
2022-08-03T11:46:08.238Z,31.20
2022-08-03T11:48:36.239Z,31.30
2022-08-03T11:51:08.433Z,31.10
2022-08-03T11:53:42.006Z,31.00
2022-08-03T11:56:13.054Z,30.90
2022-08-03T11:59:16.990Z,30.80
2022-08-03T12:01:35.742Z,30.80
2022-08-03T12:04:06.571Z,30.90
2022-08-03T12:06:53.531Z,31.20
2022-08-03T12:09:21.317Z,31.30
2022-08-03T12:11:59.911Z,31.40
2022-08-03T12:14:49.497Z,31.30
2022-08-03T12:17:16.603Z,31.20
2022-08-03T12:19:44.529Z,30.90
2022-08-03T12:22:11.533Z,30.80
2022-08-03T12:24:42.895Z,30.90
2022-08-03T12:27:10.034Z,30.90
2022-08-03T12:29:37.298Z,31.20
2022-08-03T12:32:04.478Z,31.40
2022-08-03T12:34:49.471Z,31.60
2022-08-03T12:37:23.646Z,31.80
2022-08-03T12:40:00.435Z,32.00
2022-08-03T12:42:35.743Z,32.10
2022-08-03T12:45:22.051Z,32.30
2022-08-03T12:47:53.407Z,32.20
2022-08-03T12:50:33.302Z,32.20
2022-08-03T12:53:05.411Z,32.40
2022-08-03T12:55:57.822Z,32.50
2022-08-03T12:58:34.393Z,32.10
2022-08-03T13:01:05.129Z,32.20
2022-08-03T13:03:52.894Z,32.20
2022-08-03T13:06:25.247Z,32.20
2022-08-03T13:09:08.371Z,32.10
2022-08-03T13:11:57.563Z,32.10
2022-08-03T13:14:23.631Z,32.20
2022-08-03T13:16:51.137Z,32.20
2022-08-03T13:19:18.175Z,32.30
2022-08-03T13:21:53.849Z,32.40
2022-08-03T13:24:32.446Z,32.60
2022-08-03T13:27:00.252Z,32.50
2022-08-03T13:29:27.220Z,32.40
2022-08-03T13:31:54.228Z,32.50
2022-08-03T13:34:23.928Z,32.50
2022-08-03T13:39:57.865Z,32.20
2022-08-03T13:42:26.785Z,32.50
2022-08-03T13:44:53.755Z,32.80
2022-08-03T13:47:21.241Z,32.80
2022-08-03T13:49:54.267Z,32.50
2022-08-03T13:52:33.614Z,32.60
2022-08-03T13:55:00.736Z,32.70
2022-08-03T13:58:03.025Z,32.70
2022-08-03T14:00:26.944Z,32.50
2022-08-03T14:03:06.578Z,32.40
2022-08-03T14:05:34.587Z,32.40
2022-08-03T14:08:04.286Z,32.50
2022-08-03T14:10:33.620Z,32.90
2022-08-03T14:13:00.700Z,32.80
2022-08-03T14:15:28.781Z,32.90
2022-08-03T14:17:58.510Z,32.90
2022-08-03T14:20:38.020Z,33.00
2022-08-03T14:23:15.132Z,32.90
2022-08-03T14:25:44.293Z,32.80
2022-08-03T14:28:19.042Z,32.80
2022-08-03T14:30:46.236Z,33.20
2022-08-03T14:33:13.159Z,33.60
2022-08-03T14:35:40.411Z,33.70
2022-08-03T14:38:07.548Z,33.10
2022-08-03T14:40:34.624Z,33.40
2022-08-03T14:43:02.646Z,33.50
2022-08-03T14:45:29.676Z,33.50
2022-08-03T14:50:34.122Z,33.10
2022-08-03T14:50:50.151Z,32.90
2022-08-03T14:53:18.001Z,33.00
2022-08-03T14:55:51.291Z,32.90
2022-08-03T14:58:23.079Z,32.90
2022-08-03T15:00:51.622Z,33.10
2022-08-03T15:03:23.229Z,33.50
2022-08-03T15:05:54.213Z,34.60
2022-08-03T15:08:22.106Z,36.40
2022-08-03T15:10:49.805Z,35.80
2022-08-03T15:13:18.453Z,34.60
2022-08-03T15:15:45.585Z,33.30
2022-08-03T15:18:12.563Z,32.80
2022-08-03T15:20:45.035Z,33.50
2022-08-03T15:23:14.762Z,34.90
2022-08-03T15:26:04.056Z,36.30
2022-08-03T15:28:30.053Z,37.10
2022-08-03T15:30:57.221Z,38.20
2022-08-03T15:33:24.177Z,38.90
2022-08-03T15:35:51.795Z,37.80
2022-08-03T15:38:19.004Z,37.00
2022-08-03T15:40:46.083Z,36.30
2022-08-03T15:43:13.023Z,35.60
2022-08-03T15:45:41.903Z,35.00
2022-08-03T15:48:09.262Z,34.70
2022-08-03T15:50:36.300Z,34.50
2022-08-03T15:53:03.871Z,34.10
2022-08-03T15:55:31.559Z,33.50
2022-08-03T15:59:01.145Z,33.30
2022-08-03T16:00:45.700Z,33.10
2022-08-03T16:03:12.689Z,32.60
2022-08-03T16:05:39.624Z,32.50
2022-08-03T16:08:11.638Z,32.50
2022-08-03T16:10:41.025Z,32.50
2022-08-03T16:13:09.507Z,32.20
2022-08-03T16:15:38.356Z,32.10
2022-08-03T16:18:06.901Z,32.10
2022-08-03T16:20:35.283Z,32.00
2022-08-03T16:23:10.599Z,31.90
2022-08-03T16:25:39.958Z,31.80
2022-08-03T16:28:13.085Z,31.70
2022-08-03T16:30:42.544Z,31.80
2022-08-03T16:33:10.031Z,31.70
2022-08-03T16:35:37.093Z,31.70
2022-08-03T16:38:09.763Z,31.60
2022-08-03T16:40:38.010Z,31.60
2022-08-03T16:43:17.997Z,31.60
2022-08-03T16:45:45.920Z,31.60
2022-08-03T16:48:13.241Z,31.60
2022-08-03T16:50:40.235Z,31.60
2022-08-03T16:53:08.879Z,31.50
2022-08-03T16:55:48.715Z,31.40
2022-08-03T16:58:34.432Z,31.30
2022-08-03T17:01:22.476Z,31.20
2022-08-03T17:04:04.515Z,31.20
2022-08-03T17:06:38.050Z,31.20
2022-08-03T17:09:15.066Z,31.10
2022-08-03T17:11:47.710Z,31.00
2022-08-03T17:14:23.016Z,31.00
2022-08-03T17:17:01.609Z,30.90
2022-08-03T17:19:30.766Z,31.00
2022-08-03T17:22:12.312Z,30.90
2022-08-03T17:24:52.767Z,30.80
2022-08-03T17:28:48.357Z,30.80
2022-08-03T17:30:19.032Z,30.80
2022-08-03T17:32:52.606Z,30.70
2022-08-03T17:35:34.361Z,30.60
2022-08-03T17:38:06.596Z,30.50
2022-08-03T17:40:34.910Z,30.50
2022-08-03T17:44:14.378Z,30.30
2022-08-03T17:45:55.094Z,30.30
2022-08-03T17:48:26.257Z,30.20
2022-08-03T17:50:59.660Z,30.10
2022-08-03T17:53:37.410Z,30.10
2022-08-03T17:56:38.843Z,30.00
2022-08-03T17:59:12.594Z,29.90
2022-08-03T18:02:18.513Z,29.70
2022-08-03T18:05:03.268Z,29.60
2022-08-03T18:07:59.526Z,29.50
2022-08-03T18:10:34.344Z,29.40
2022-08-03T18:13:13.873Z,29.30
2022-08-03T18:15:47.191Z,29.20
2022-08-03T18:21:09.128Z,29.10
2022-08-03T18:23:55.705Z,28.90
2022-08-03T18:26:26.886Z,28.60
2022-08-03T18:28:54.709Z,28.40
2022-08-03T18:31:59.908Z,28.20
2022-08-03T18:34:32.553Z,28.00
2022-08-03T18:37:07.336Z,27.80
2022-08-03T18:39:39.007Z,27.60
2022-08-03T18:42:19.226Z,27.40
2022-08-03T18:44:54.343Z,27.40
2022-08-03T18:47:56.882Z,27.20
2022-08-03T18:50:53.543Z,27.10
2022-08-03T18:54:02.236Z,27.00
2022-08-03T18:56:52.872Z,26.90
2022-08-03T18:59:30.493Z,26.90
2022-08-03T19:02:19.830Z,26.80
2022-08-03T19:04:51.919Z,26.70
2022-08-03T19:07:27.515Z,26.50
2022-08-03T19:10:07.636Z,26.40
2022-08-03T19:12:42.350Z,26.40
2022-08-03T19:15:15.757Z,26.30
2022-08-03T19:17:53.270Z,26.20
2022-08-03T19:20:38.475Z,26.20
2022-08-03T19:23:06.586Z,26.10
2022-08-03T19:25:38.929Z,26.00
2022-08-03T19:28:08.806Z,25.90
2022-08-03T19:30:46.484Z,25.80
2022-08-03T19:33:22.681Z,25.80
2022-08-03T19:35:55.472Z,25.70
2022-08-03T19:38:28.300Z,25.70
2022-08-03T19:40:58.251Z,25.50
2022-08-03T19:43:49.548Z,25.40
2022-08-03T19:46:27.719Z,25.30
2022-08-03T19:49:14.829Z,25.20
2022-08-03T19:52:01.194Z,25.20
2022-08-03T19:54:45.619Z,25.10
2022-08-03T19:57:27.538Z,25.00
2022-08-03T19:59:55.718Z,25.00
2022-08-03T20:02:26.563Z,24.90
2022-08-03T20:04:56.308Z,24.90
2022-08-03T20:07:25.549Z,24.80
2022-08-03T20:09:54.561Z,24.80
2022-08-03T20:12:26.639Z,24.70
2022-08-03T20:14:58.034Z,24.60
2022-08-03T20:17:55.366Z,24.60
2022-08-03T20:20:13.920Z,24.50
2022-08-03T20:22:48.146Z,24.40
2022-08-03T20:25:20.985Z,24.40
2022-08-03T20:28:07.380Z,24.30
2022-08-03T20:30:43.226Z,24.20
2022-08-03T20:33:10.768Z,24.10
2022-08-03T20:35:38.022Z,24.10
2022-08-03T20:38:09.438Z,24.10
2022-08-03T20:40:36.707Z,24.00
2022-08-03T20:43:05.215Z,24.00
2022-08-03T20:46:00.972Z,23.90
2022-08-03T20:48:21.975Z,23.90
2022-08-03T20:50:49.307Z,23.90
2022-08-03T20:53:20.931Z,23.80
2022-08-03T20:56:04.991Z,23.80
2022-08-03T20:58:36.108Z,23.70
2022-08-03T21:01:04.190Z,23.60
2022-08-03T21:03:40.896Z,23.60
2022-08-03T21:06:27.909Z,23.60
2022-08-03T21:09:03.899Z,23.50
2022-08-03T21:11:41.824Z,23.50
2022-08-03T21:13:04.990Z,29.10
2022-08-03T21:14:39.204Z,23.50
2022-08-03T21:17:14.229Z,23.40
2022-08-03T21:19:51.751Z,23.30
2022-08-03T21:22:22.991Z,23.30
2022-08-03T21:24:55.867Z,23.20
2022-08-03T21:27:24.493Z,23.10
2022-08-03T21:29:53.332Z,23.10
2022-08-03T21:32:32.311Z,23.10
2022-08-03T21:35:00.798Z,23.00
2022-08-03T21:37:28.924Z,23.00
2022-08-03T21:39:56.670Z,23.00
2022-08-03T21:42:24.302Z,22.90
2022-08-03T21:44:52.135Z,22.80
2022-08-03T21:47:22.521Z,22.80
2022-08-03T21:50:06.437Z,22.70
2022-08-03T21:52:40.589Z,22.60
2022-08-03T21:55:09.167Z,22.60
2022-08-03T21:57:51.679Z,22.50
2022-08-03T22:00:21.415Z,22.50
2022-08-03T22:02:55.411Z,22.40
2022-08-03T22:08:14.132Z,22.40
2022-08-03T22:10:44.886Z,22.40
2022-08-03T22:13:13.678Z,22.30
2022-08-03T22:15:41.792Z,22.20
2022-08-03T22:18:09.074Z,22.20
2022-08-03T22:20:36.273Z,22.10
2022-08-03T22:23:06.274Z,22.10
2022-08-03T22:25:36.539Z,22.10
2022-08-03T22:28:08.843Z,22.00
2022-08-03T22:30:36.869Z,22.00
2022-08-03T22:33:11.515Z,21.90
2022-08-03T22:35:48.563Z,21.90
2022-08-03T22:38:17.332Z,21.80
2022-08-03T22:40:45.175Z,21.80
2022-08-03T22:43:12.243Z,21.70
2022-08-03T22:46:07.301Z,21.70
2022-08-03T22:48:27.790Z,21.70
2022-08-03T22:50:56.392Z,21.60
2022-08-03T22:53:23.527Z,21.60
2022-08-03T22:55:51.630Z,21.50
2022-08-03T22:58:21.006Z,21.50
2022-08-03T23:00:58.583Z,21.50
2022-08-03T23:04:00.416Z,21.40
2022-08-03T23:06:21.848Z,21.40
2022-08-03T23:08:50.608Z,21.40
2022-08-03T23:11:19.051Z,21.30
2022-08-03T23:13:49.817Z,21.30
2022-08-03T23:16:29.033Z,21.20
2022-08-03T23:18:57.939Z,21.20
2022-08-03T23:21:52.931Z,21.10
2022-08-03T23:24:25.305Z,21.10
2022-08-03T23:26:57.274Z,21.10
2022-08-03T23:29:24.731Z,21.00
2022-08-03T23:31:53.903Z,21.00
2022-08-03T23:34:42.345Z,20.90
2022-08-03T23:37:09.811Z,20.90
2022-08-03T23:39:38.213Z,20.90
2022-08-03T23:42:06.120Z,20.90
2022-08-03T23:44:36.640Z,20.80
2022-08-03T23:47:03.672Z,20.80
2022-08-03T23:49:30.781Z,20.70
2022-08-03T23:52:11.578Z,20.70
2022-08-03T23:54:59.892Z,20.70
2022-08-03T23:57:26.818Z,20.60
